sensor_id;sensor_type;location;lat;lon;timestamp;temperature;humidity
18041;DHT22;9145;48.588;9.250;2023-04-26T00:02:15;8.20;99.90
18041;DHT22;9145;48.588;9.250;2023-04-26T00:04:43;8.20;99.90
18041;DHT22;9145;48.588;9.250;2023-04-26T00:07:12;8.20;99.90
18041;DHT22;9145;48.588;9.250;2023-04-26T00:09:40;8.10;99.90
18041;DHT22;9145;48.588;9.250;2023-04-26T00:12:08;8.20;99.90
18041;DHT22;9145;48.588;9.250;2023-04-26T00:14:36;8.20;99.90
18041;DHT22;9145;48.588;9.250;2023-04-26T00:17:04;8.30;99.90
18041;DHT22;9145;48.588;9.250;2023-04-26T00:19:30;8.30;99.90
18041;DHT22;9145;48.588;9.250;2023-04-26T00:21:57;8.30;99.90
18041;DHT22;9145;48.588;9.250;2023-04-26T00:24:25;8.20;99.90
18041;DHT22;9145;48.588;9.250;2023-04-26T00:26:53;8.20;99.90
18041;DHT22;9145;48.588;9.250;2023-04-26T00:29:20;8.20;99.90
18041;DHT22;9145;48.588;9.250;2023-04-26T00:31:47;8.20;99.90
18041;DHT22;9145;48.588;9.250;2023-04-26T00:34:14;8.20;99.90
18041;DHT22;9145;48.588;9.250;2023-04-26T00:36:40;8.10;99.90
18041;DHT22;9145;48.588;9.250;2023-04-26T00:39:07;8.10;99.90
18041;DHT22;9145;48.588;9.250;2023-04-26T00:41:36;8.10;99.90
18041;DHT22;9145;48.588;9.250;2023-04-26T00:44:03;8.20;99.90
18041;DHT22;9145;48.588;9.250;2023-04-26T00:46:30;8.10;99.90
18041;DHT22;9145;48.588;9.250;2023-04-26T00:48:57;8.10;99.90
18041;DHT22;9145;48.588;9.250;2023-04-26T00:51:24;8.00;99.90
18041;DHT22;9145;48.588;9.250;2023-04-26T00:53:51;8.00;99.90
18041;DHT22;9145;48.588;9.250;2023-04-26T00:56:20;8.00;99.90
18041;DHT22;9145;48.588;9.250;2023-04-26T00:58:50;8.10;99.90
18041;DHT22;9145;48.588;9.250;2023-04-26T01:01:16;8.00;99.90
18041;DHT22;9145;48.588;9.250;2023-04-26T01:03:44;7.90;99.90
18041;DHT22;9145;48.588;9.250;2023-04-26T01:06:12;7.90;99.90
18041;DHT22;9145;48.588;9.250;2023-04-26T01:08:39;7.90;99.90
18041;DHT22;9145;48.588;9.250;2023-04-26T01:11:06;7.80;99.90
18041;DHT22;9145;48.588;9.250;2023-04-26T01:13:33;7.80;99.90
18041;DHT22;9145;48.588;9.250;2023-04-26T01:16:03;7.90;99.90
18041;DHT22;9145;48.588;9.250;2023-04-26T01:18:31;7.90;99.90
18041;DHT22;9145;48.588;9.250;2023-04-26T01:20:57;7.90;99.90
18041;DHT22;9145;48.588;9.250;2023-04-26T01:23:26;7.90;99.90
18041;DHT22;9145;48.588;9.250;2023-04-26T01:25:52;7.90;99.90
18041;DHT22;9145;48.588;9.250;2023-04-26T01:28:20;7.90;99.90
18041;DHT22;9145;48.588;9.250;2023-04-26T01:30:48;7.80;99.90
18041;DHT22;9145;48.588;9.250;2023-04-26T01:33:15;7.80;99.90
18041;DHT22;9145;48.588;9.250;2023-04-26T01:35:41;7.80;99.90
18041;DHT22;9145;48.588;9.250;2023-04-26T01:38:08;7.80;99.90
18041;DHT22;9145;48.588;9.250;2023-04-26T01:40:36;7.80;99.90
18041;DHT22;9145;48.588;9.250;2023-04-26T01:43:03;7.80;99.90
18041;DHT22;9145;48.588;9.250;2023-04-26T01:45:30;7.80;99.90
18041;DHT22;9145;48.588;9.250;2023-04-26T01:47:57;7.70;99.90
18041;DHT22;9145;48.588;9.250;2023-04-26T01:50:24;7.80;99.90
18041;DHT22;9145;48.588;9.250;2023-04-26T01:52:51;7.80;99.90
18041;DHT22;9145;48.588;9.250;2023-04-26T01:55:18;7.80;99.90
18041;DHT22;9145;48.588;9.250;2023-04-26T01:57:46;7.70;99.90
18041;DHT22;9145;48.588;9.250;2023-04-26T02:00:13;7.70;99.90
18041;DHT22;9145;48.588;9.250;2023-04-26T02:02:40;7.70;99.90
18041;DHT22;9145;48.588;9.250;2023-04-26T02:05:09;7.70;99.90
18041;DHT22;9145;48.588;9.250;2023-04-26T02:07:36;7.80;99.90
18041;DHT22;9145;48.588;9.250;2023-04-26T02:10:04;7.80;99.90
18041;DHT22;9145;48.588;9.250;2023-04-26T02:12:30;7.70;99.90
18041;DHT22;9145;48.588;9.250;2023-04-26T02:14:59;7.70;99.90
18041;DHT22;9145;48.588;9.250;2023-04-26T02:17:26;7.70;99.90
18041;DHT22;9145;48.588;9.250;2023-04-26T02:19:53;7.60;99.90
18041;DHT22;9145;48.588;9.250;2023-04-26T02:22:21;7.60;99.90
18041;DHT22;9145;48.588;9.250;2023-04-26T02:24:50;7.50;99.90
18041;DHT22;9145;48.588;9.250;2023-04-26T02:27:17;7.40;99.90
18041;DHT22;9145;48.588;9.250;2023-04-26T02:29:44;7.30;99.90
18041;DHT22;9145;48.588;9.250;2023-04-26T02:32:13;7.30;99.90
18041;DHT22;9145;48.588;9.250;2023-04-26T02:34:40;7.20;99.90
18041;DHT22;9145;48.588;9.250;2023-04-26T02:37:07;7.10;99.90
18041;DHT22;9145;48.588;9.250;2023-04-26T02:39:34;7.00;99.90
18041;DHT22;9145;48.588;9.250;2023-04-26T02:42:01;7.00;99.90
18041;DHT22;9145;48.588;9.250;2023-04-26T02:44:28;7.00;99.90
18041;DHT22;9145;48.588;9.250;2023-04-26T02:46:56;7.00;99.90
18041;DHT22;9145;48.588;9.250;2023-04-26T02:49:24;7.00;99.90
18041;DHT22;9145;48.588;9.250;2023-04-26T02:51:51;6.90;99.90
18041;DHT22;9145;48.588;9.250;2023-04-26T02:54:18;6.90;99.90
18041;DHT22;9145;48.588;9.250;2023-04-26T02:56:44;6.90;99.90
18041;DHT22;9145;48.588;9.250;2023-04-26T02:59:11;6.80;99.90
18041;DHT22;9145;48.588;9.250;2023-04-26T03:01:38;6.70;99.90
18041;DHT22;9145;48.588;9.250;2023-04-26T03:04:06;6.60;99.90
18041;DHT22;9145;48.588;9.250;2023-04-26T03:06:34;6.60;99.90
18041;DHT22;9145;48.588;9.250;2023-04-26T03:09:01;6.60;99.90
18041;DHT22;9145;48.588;9.250;2023-04-26T03:11:28;6.50;99.90
18041;DHT22;9145;48.588;9.250;2023-04-26T03:13:55;6.50;99.90
18041;DHT22;9145;48.588;9.250;2023-04-26T03:16:22;6.50;99.90
18041;DHT22;9145;48.588;9.250;2023-04-26T03:18:49;6.60;99.90
18041;DHT22;9145;48.588;9.250;2023-04-26T03:21:15;6.50;99.90
18041;DHT22;9145;48.588;9.250;2023-04-26T03:23:44;6.60;99.90
18041;DHT22;9145;48.588;9.250;2023-04-26T03:26:10;6.60;99.90
18041;DHT22;9145;48.588;9.250;2023-04-26T03:28:37;6.60;99.90
18041;DHT22;9145;48.588;9.250;2023-04-26T03:31:04;6.60;99.90
18041;DHT22;9145;48.588;9.250;2023-04-26T03:33:31;6.60;99.90
18041;DHT22;9145;48.588;9.250;2023-04-26T03:35:58;6.60;99.90
18041;DHT22;9145;48.588;9.250;2023-04-26T03:38:25;6.60;99.90
18041;DHT22;9145;48.588;9.250;2023-04-26T03:40:53;6.60;99.90
18041;DHT22;9145;48.588;9.250;2023-04-26T03:43:20;6.60;99.90
18041;DHT22;9145;48.588;9.250;2023-04-26T03:45:47;6.50;99.90
18041;DHT22;9145;48.588;9.250;2023-04-26T03:48:15;6.40;99.90
18041;DHT22;9145;48.588;9.250;2023-04-26T03:50:42;6.30;99.90
18041;DHT22;9145;48.588;9.250;2023-04-26T03:53:10;6.20;99.90
18041;DHT22;9145;48.588;9.250;2023-04-26T03:55:37;6.20;99.90
18041;DHT22;9145;48.588;9.250;2023-04-26T03:58:05;6.10;99.90
18041;DHT22;9145;48.588;9.250;2023-04-26T04:00:33;6.10;99.90
18041;DHT22;9145;48.588;9.250;2023-04-26T04:03:00;6.10;99.90
18041;DHT22;9145;48.588;9.250;2023-04-26T04:05:27;6.10;99.90
18041;DHT22;9145;48.588;9.250;2023-04-26T04:07:54;6.00;99.90
18041;DHT22;9145;48.588;9.250;2023-04-26T04:10:21;6.00;99.90
18041;DHT22;9145;48.588;9.250;2023-04-26T04:12:48;5.90;99.90
18041;DHT22;9145;48.588;9.250;2023-04-26T04:15:18;5.80;99.90
18041;DHT22;9145;48.588;9.250;2023-04-26T04:17:45;5.70;99.90
18041;DHT22;9145;48.588;9.250;2023-04-26T04:20:12;5.60;99.90
18041;DHT22;9145;48.588;9.250;2023-04-26T04:22:39;5.60;99.90
18041;DHT22;9145;48.588;9.250;2023-04-26T04:25:07;5.60;99.90
18041;DHT22;9145;48.588;9.250;2023-04-26T04:27:35;5.60;99.90
18041;DHT22;9145;48.588;9.250;2023-04-26T04:30:03;5.60;99.90
18041;DHT22;9145;48.588;9.250;2023-04-26T04:32:33;5.60;99.90
18041;DHT22;9145;48.588;9.250;2023-04-26T04:35:00;5.60;99.90
18041;DHT22;9145;48.588;9.250;2023-04-26T04:37:27;5.60;99.90
18041;DHT22;9145;48.588;9.250;2023-04-26T04:39:57;5.70;99.90
18041;DHT22;9145;48.588;9.250;2023-04-26T04:42:24;5.80;99.90
18041;DHT22;9145;48.588;9.250;2023-04-26T04:44:52;5.80;99.90
18041;DHT22;9145;48.588;9.250;2023-04-26T04:47:19;5.80;99.90
18041;DHT22;9145;48.588;9.250;2023-04-26T04:49:47;5.90;99.90
18041;DHT22;9145;48.588;9.250;2023-04-26T04:52:14;5.80;99.90
18041;DHT22;9145;48.588;9.250;2023-04-26T04:54:41;6.00;99.90
18041;DHT22;9145;48.588;9.250;2023-04-26T04:57:08;5.90;99.90
18041;DHT22;9145;48.588;9.250;2023-04-26T04:59:36;6.00;99.90
18041;DHT22;9145;48.588;9.250;2023-04-26T05:02:03;6.00;99.90
18041;DHT22;9145;48.588;9.250;2023-04-26T05:04:30;5.90;99.90
18041;DHT22;9145;48.588;9.250;2023-04-26T05:07:00;5.90;99.90
18041;DHT22;9145;48.588;9.250;2023-04-26T05:09:26;6.00;99.90
18041;DHT22;9145;48.588;9.250;2023-04-26T05:11:53;6.00;99.90
18041;DHT22;9145;48.588;9.250;2023-04-26T05:14:20;6.00;99.90
18041;DHT22;9145;48.588;9.250;2023-04-26T05:16:47;6.10;99.90
18041;DHT22;9145;48.588;9.250;2023-04-26T05:19:14;6.10;99.90
18041;DHT22;9145;48.588;9.250;2023-04-26T05:21:41;6.10;99.90
18041;DHT22;9145;48.588;9.250;2023-04-26T05:24:09;6.10;99.90
18041;DHT22;9145;48.588;9.250;2023-04-26T05:26:36;6.20;99.90
18041;DHT22;9145;48.588;9.250;2023-04-26T05:29:02;6.30;99.90
18041;DHT22;9145;48.588;9.250;2023-04-26T05:31:29;6.30;99.90
18041;DHT22;9145;48.588;9.250;2023-04-26T05:33:56;6.30;99.90
18041;DHT22;9145;48.588;9.250;2023-04-26T05:36:23;6.30;99.90
18041;DHT22;9145;48.588;9.250;2023-04-26T05:38:50;6.30;99.90
18041;DHT22;9145;48.588;9.250;2023-04-26T05:41:18;6.40;99.90
18041;DHT22;9145;48.588;9.250;2023-04-26T05:43:45;6.40;99.90
18041;DHT22;9145;48.588;9.250;2023-04-26T05:46:12;6.50;99.90
18041;DHT22;9145;48.588;9.250;2023-04-26T05:48:39;6.60;99.90
18041;DHT22;9145;48.588;9.250;2023-04-26T05:51:06;6.60;99.90
18041;DHT22;9145;48.588;9.250;2023-04-26T05:53:33;6.60;99.90
18041;DHT22;9145;48.588;9.250;2023-04-26T05:56:00;6.60;99.90
18041;DHT22;9145;48.588;9.250;2023-04-26T05:58:28;6.60;99.90
18041;DHT22;9145;48.588;9.250;2023-04-26T06:00:55;6.60;99.90
18041;DHT22;9145;48.588;9.250;2023-04-26T06:03:22;6.70;99.90
18041;DHT22;9145;48.588;9.250;2023-04-26T06:05:49;6.70;99.90
18041;DHT22;9145;48.588;9.250;2023-04-26T06:08:16;6.70;99.90
18041;DHT22;9145;48.588;9.250;2023-04-26T06:10:43;6.70;99.90
18041;DHT22;9145;48.588;9.250;2023-04-26T06:13:11;6.70;99.90
18041;DHT22;9145;48.588;9.250;2023-04-26T06:15:39;6.70;99.90
18041;DHT22;9145;48.588;9.250;2023-04-26T06:18:06;6.80;99.90
18041;DHT22;9145;48.588;9.250;2023-04-26T06:20:33;6.80;99.90
18041;DHT22;9145;48.588;9.250;2023-04-26T06:23:00;6.90;99.90
18041;DHT22;9145;48.588;9.250;2023-04-26T06:25:27;6.90;99.90
18041;DHT22;9145;48.588;9.250;2023-04-26T06:27:54;7.00;99.90
18041;DHT22;9145;48.588;9.250;2023-04-26T06:30:21;7.00;99.90
18041;DHT22;9145;48.588;9.250;2023-04-26T06:32:49;7.10;99.90
18041;DHT22;9145;48.588;9.250;2023-04-26T06:35:16;7.10;99.90
18041;DHT22;9145;48.588;9.250;2023-04-26T06:37:42;7.20;99.90
18041;DHT22;9145;48.588;9.250;2023-04-26T06:40:10;7.30;99.90
18041;DHT22;9145;48.588;9.250;2023-04-26T06:42:38;7.50;99.90
18041;DHT22;9145;48.588;9.250;2023-04-26T06:45:06;7.60;99.90
18041;DHT22;9145;48.588;9.250;2023-04-26T06:47:33;7.70;99.90
18041;DHT22;9145;48.588;9.250;2023-04-26T06:50:02;7.80;99.90
18041;DHT22;9145;48.588;9.250;2023-04-26T06:52:29;7.90;99.90
18041;DHT22;9145;48.588;9.250;2023-04-26T06:54:56;7.80;99.90
18041;DHT22;9145;48.588;9.250;2023-04-26T06:57:22;7.90;99.90
18041;DHT22;9145;48.588;9.250;2023-04-26T06:59:49;8.00;99.90
18041;DHT22;9145;48.588;9.250;2023-04-26T07:02:16;8.10;99.90
18041;DHT22;9145;48.588;9.250;2023-04-26T07:04:43;8.10;99.90
18041;DHT22;9145;48.588;9.250;2023-04-26T07:07:11;8.00;99.90
18041;DHT22;9145;48.588;9.250;2023-04-26T07:09:38;8.10;99.90
18041;DHT22;9145;48.588;9.250;2023-04-26T07:12:05;8.10;99.90
18041;DHT22;9145;48.588;9.250;2023-04-26T07:14:32;8.10;99.90
18041;DHT22;9145;48.588;9.250;2023-04-26T07:17:00;8.10;99.90
18041;DHT22;9145;48.588;9.250;2023-04-26T07:19:26;8.20;99.90
18041;DHT22;9145;48.588;9.250;2023-04-26T07:21:53;8.30;99.90
18041;DHT22;9145;48.588;9.250;2023-04-26T07:24:21;8.30;99.90
18041;DHT22;9145;48.588;9.250;2023-04-26T07:26:48;8.40;99.90
18041;DHT22;9145;48.588;9.250;2023-04-26T07:29:15;8.50;99.90
18041;DHT22;9145;48.588;9.250;2023-04-26T07:31:43;8.60;99.90
18041;DHT22;9145;48.588;9.250;2023-04-26T07:34:10;8.80;99.90
18041;DHT22;9145;48.588;9.250;2023-04-26T07:36:37;9.00;99.90
18041;DHT22;9145;48.588;9.250;2023-04-26T07:39:04;9.00;99.90
18041;DHT22;9145;48.588;9.250;2023-04-26T07:41:32;9.10;99.90
18041;DHT22;9145;48.588;9.250;2023-04-26T07:43:59;9.00;99.90
18041;DHT22;9145;48.588;9.250;2023-04-26T07:46:26;9.10;99.90
18041;DHT22;9145;48.588;9.250;2023-04-26T07:48:53;9.10;99.90
18041;DHT22;9145;48.588;9.250;2023-04-26T07:51:20;9.30;99.90
18041;DHT22;9145;48.588;9.250;2023-04-26T07:53:46;9.50;99.90
18041;DHT22;9145;48.588;9.250;2023-04-26T07:56:13;9.60;99.90
18041;DHT22;9145;48.588;9.250;2023-04-26T07:58:42;9.80;99.90
18041;DHT22;9145;48.588;9.250;2023-04-26T08:01:09;10.10;99.90
18041;DHT22;9145;48.588;9.250;2023-04-26T08:03:36;10.30;99.90
18041;DHT22;9145;48.588;9.250;2023-04-26T08:06:03;10.40;99.90
18041;DHT22;9145;48.588;9.250;2023-04-26T08:08:30;10.30;99.90
18041;DHT22;9145;48.588;9.250;2023-04-26T08:10:58;10.30;99.90
18041;DHT22;9145;48.588;9.250;2023-04-26T08:13:25;10.20;99.90
18041;DHT22;9145;48.588;9.250;2023-04-26T08:15:53;10.30;99.90
18041;DHT22;9145;48.588;9.250;2023-04-26T08:18:20;10.40;99.90
18041;DHT22;9145;48.588;9.250;2023-04-26T08:20:46;10.30;99.90
18041;DHT22;9145;48.588;9.250;2023-04-26T08:23:13;10.30;99.90
18041;DHT22;9145;48.588;9.250;2023-04-26T08:25:40;10.50;99.90
18041;DHT22;9145;48.588;9.250;2023-04-26T08:28:07;10.40;99.90
18041;DHT22;9145;48.588;9.250;2023-04-26T08:30:34;10.40;99.90
18041;DHT22;9145;48.588;9.250;2023-04-26T08:33:02;10.30;99.90
18041;DHT22;9145;48.588;9.250;2023-04-26T08:35:29;10.40;99.90
18041;DHT22;9145;48.588;9.250;2023-04-26T08:37:56;10.50;99.90
18041;DHT22;9145;48.588;9.250;2023-04-26T08:40:23;10.70;99.90
18041;DHT22;9145;48.588;9.250;2023-04-26T08:42:50;11.00;99.90
18041;DHT22;9145;48.588;9.250;2023-04-26T08:45:19;11.30;99.90
18041;DHT22;9145;48.588;9.250;2023-04-26T08:47:47;11.40;99.90
18041;DHT22;9145;48.588;9.250;2023-04-26T08:50:18;11.10;99.90
18041;DHT22;9145;48.588;9.250;2023-04-26T08:52:47;11.20;99.90
18041;DHT22;9145;48.588;9.250;2023-04-26T08:55:15;11.40;99.90
18041;DHT22;9145;48.588;9.250;2023-04-26T08:57:45;11.40;99.90
18041;DHT22;9145;48.588;9.250;2023-04-26T09:00:13;11.40;99.90
18041;DHT22;9145;48.588;9.250;2023-04-26T09:02:41;11.40;99.90
18041;DHT22;9145;48.588;9.250;2023-04-26T09:05:09;11.50;99.90
18041;DHT22;9145;48.588;9.250;2023-04-26T09:07:41;11.50;99.90
18041;DHT22;9145;48.588;9.250;2023-04-26T09:10:09;11.20;99.90
18041;DHT22;9145;48.588;9.250;2023-04-26T09:12:37;11.20;99.90
18041;DHT22;9145;48.588;9.250;2023-04-26T09:15:04;11.30;99.90
18041;DHT22;9145;48.588;9.250;2023-04-26T09:17:33;11.30;99.90
18041;DHT22;9145;48.588;9.250;2023-04-26T09:20:17;11.30;99.90
18041;DHT22;9145;48.588;9.250;2023-04-26T09:22:46;11.30;99.90
18041;DHT22;9145;48.588;9.250;2023-04-26T09:25:15;11.20;99.90
18041;DHT22;9145;48.588;9.250;2023-04-26T09:27:43;11.30;99.90
18041;DHT22;9145;48.588;9.250;2023-04-26T09:30:12;11.60;99.90
18041;DHT22;9145;48.588;9.250;2023-04-26T09:32:45;11.90;99.90
18041;DHT22;9145;48.588;9.250;2023-04-26T09:35:27;12.20;99.90
18041;DHT22;9145;48.588;9.250;2023-04-26T09:37:57;12.10;99.90
18041;DHT22;9145;48.588;9.250;2023-04-26T09:40:25;11.90;99.90
18041;DHT22;9145;48.588;9.250;2023-04-26T09:43:01;11.80;99.90
18041;DHT22;9145;48.588;9.250;2023-04-26T09:45:30;11.90;99.90
18041;DHT22;9145;48.588;9.250;2023-04-26T09:48:14;12.00;99.90
18041;DHT22;9145;48.588;9.250;2023-04-26T09:50:42;12.50;99.90
18041;DHT22;9145;48.588;9.250;2023-04-26T09:53:24;12.90;99.90
18041;DHT22;9145;48.588;9.250;2023-04-26T09:55:52;13.30;99.90
18041;DHT22;9145;48.588;9.250;2023-04-26T09:58:19;13.60;99.90
18041;DHT22;9145;48.588;9.250;2023-04-26T10:00:49;13.50;99.90
18041;DHT22;9145;48.588;9.250;2023-04-26T10:03:17;13.40;99.90
18041;DHT22;9145;48.588;9.250;2023-04-26T10:05:45;13.60;99.90
18041;DHT22;9145;48.588;9.250;2023-04-26T10:08:13;13.70;99.90
18041;DHT22;9145;48.588;9.250;2023-04-26T10:10:41;14.00;99.90
18041;DHT22;9145;48.588;9.250;2023-04-26T10:13:08;14.10;99.90
18041;DHT22;9145;48.588;9.250;2023-04-26T10:15:38;14.10;99.90
18041;DHT22;9145;48.588;9.250;2023-04-26T10:18:05;13.50;99.90
18041;DHT22;9145;48.588;9.250;2023-04-26T10:20:32;13.50;99.90
18041;DHT22;9145;48.588;9.250;2023-04-26T10:23:01;13.80;99.90
18041;DHT22;9145;48.588;9.250;2023-04-26T10:25:37;14.10;99.90
18041;DHT22;9145;48.588;9.250;2023-04-26T10:28:05;14.40;99.90
18041;DHT22;9145;48.588;9.250;2023-04-26T10:30:32;14.50;99.90
18041;DHT22;9145;48.588;9.250;2023-04-26T10:33:14;14.70;99.90
18041;DHT22;9145;48.588;9.250;2023-04-26T10:36:03;14.20;99.90
18041;DHT22;9145;48.588;9.250;2023-04-26T10:38:31;14.10;99.90
18041;DHT22;9145;48.588;9.250;2023-04-26T10:41:28;14.20;99.90
18041;DHT22;9145;48.588;9.250;2023-04-26T10:43:56;14.20;99.90
18041;DHT22;9145;48.588;9.250;2023-04-26T10:46:37;14.20;99.90
18041;DHT22;9145;48.588;9.250;2023-04-26T10:49:12;13.80;99.90
18041;DHT22;9145;48.588;9.250;2023-04-26T10:51:40;13.80;99.90
18041;DHT22;9145;48.588;9.250;2023-04-26T10:54:06;13.80;99.90
18041;DHT22;9145;48.588;9.250;2023-04-26T10:56:53;13.80;99.90
18041;DHT22;9145;48.588;9.250;2023-04-26T10:59:20;14.00;99.90
18041;DHT22;9145;48.588;9.250;2023-04-26T11:01:47;14.20;99.90
18041;DHT22;9145;48.588;9.250;2023-04-26T11:04:14;14.40;99.90
18041;DHT22;9145;48.588;9.250;2023-04-26T11:06:48;14.50;99.90
18041;DHT22;9145;48.588;9.250;2023-04-26T11:09:35;14.60;99.90
18041;DHT22;9145;48.588;9.250;2023-04-26T11:12:10;14.70;99.90
18041;DHT22;9145;48.588;9.250;2023-04-26T11:14:37;15.30;99.90
18041;DHT22;9145;48.588;9.250;2023-04-26T11:17:05;15.30;99.90
18041;DHT22;9145;48.588;9.250;2023-04-26T11:19:33;15.60;99.90
18041;DHT22;9145;48.588;9.250;2023-04-26T11:22:00;15.40;99.90
18041;DHT22;9145;48.588;9.250;2023-04-26T11:24:29;14.90;99.90
18041;DHT22;9145;48.588;9.250;2023-04-26T11:26:56;14.80;99.90
18041;DHT22;9145;48.588;9.250;2023-04-26T11:29:25;14.70;99.90
18041;DHT22;9145;48.588;9.250;2023-04-26T11:31:52;14.70;99.90
18041;DHT22;9145;48.588;9.250;2023-04-26T11:34:20;14.80;99.90
18041;DHT22;9145;48.588;9.250;2023-04-26T11:36:50;14.90;99.90
18041;DHT22;9145;48.588;9.250;2023-04-26T11:39:19;14.50;99.90
18041;DHT22;9145;48.588;9.250;2023-04-26T11:41:47;14.50;99.90
18041;DHT22;9145;48.588;9.250;2023-04-26T11:44:17;14.80;99.90
18041;DHT22;9145;48.588;9.250;2023-04-26T11:46:46;15.10;99.90
18041;DHT22;9145;48.588;9.250;2023-04-26T11:49:14;15.10;99.90
18041;DHT22;9145;48.588;9.250;2023-04-26T11:51:41;14.80;99.90
18041;DHT22;9145;48.588;9.250;2023-04-26T11:54:08;14.60;99.90
18041;DHT22;9145;48.588;9.250;2023-04-26T11:56:35;14.50;99.90
18041;DHT22;9145;48.588;9.250;2023-04-26T11:59:02;14.50;99.90
18041;DHT22;9145;48.588;9.250;2023-04-26T12:01:29;14.30;99.90
18041;DHT22;9145;48.588;9.250;2023-04-26T12:03:58;14.20;99.90
18041;DHT22;9145;48.588;9.250;2023-04-26T12:06:29;14.00;99.90
18041;DHT22;9145;48.588;9.250;2023-04-26T12:08:57;14.10;99.90
18041;DHT22;9145;48.588;9.250;2023-04-26T12:11:24;14.30;99.90
18041;DHT22;9145;48.588;9.250;2023-04-26T12:13:52;14.80;99.90
18041;DHT22;9145;48.588;9.250;2023-04-26T12:16:18;15.20;99.90
18041;DHT22;9145;48.588;9.250;2023-04-26T12:18:49;15.00;99.90
18041;DHT22;9145;48.588;9.250;2023-04-26T12:21:18;14.70;99.90
18041;DHT22;9145;48.588;9.250;2023-04-26T12:23:45;14.40;99.90
18041;DHT22;9145;48.588;9.250;2023-04-26T12:26:13;14.20;99.90
18041;DHT22;9145;48.588;9.250;2023-04-26T12:28:40;14.60;99.90
18041;DHT22;9145;48.588;9.250;2023-04-26T12:31:07;15.10;99.90
18041;DHT22;9145;48.588;9.250;2023-04-26T12:33:34;15.50;99.90
18041;DHT22;9145;48.588;9.250;2023-04-26T12:36:09;15.90;99.90
18041;DHT22;9145;48.588;9.250;2023-04-26T12:38:37;15.70;99.90
18041;DHT22;9145;48.588;9.250;2023-04-26T12:41:05;15.90;99.90
18041;DHT22;9145;48.588;9.250;2023-04-26T12:43:31;16.00;99.90
18041;DHT22;9145;48.588;9.250;2023-04-26T12:45:59;16.10;99.90
18041;DHT22;9145;48.588;9.250;2023-04-26T12:48:26;16.20;99.90
18041;DHT22;9145;48.588;9.250;2023-04-26T12:50:53;16.10;99.90
18041;DHT22;9145;48.588;9.250;2023-04-26T12:53:20;16.10;99.90
18041;DHT22;9145;48.588;9.250;2023-04-26T12:55:48;16.10;99.90
18041;DHT22;9145;48.588;9.250;2023-04-26T12:58:15;15.80;99.90
18041;DHT22;9145;48.588;9.250;2023-04-26T13:00:42;15.70;99.90
18041;DHT22;9145;48.588;9.250;2023-04-26T13:03:08;15.60;99.90
18041;DHT22;9145;48.588;9.250;2023-04-26T13:05:38;15.50;99.90
18041;DHT22;9145;48.588;9.250;2023-04-26T13:08:05;15.80;99.90
18041;DHT22;9145;48.588;9.250;2023-04-26T13:10:32;16.00;99.90
18041;DHT22;9145;48.588;9.250;2023-04-26T13:13:00;16.50;99.90
18041;DHT22;9145;48.588;9.250;2023-04-26T13:15:27;16.90;99.90
18041;DHT22;9145;48.588;9.250;2023-04-26T13:17:54;16.50;98.50
18041;DHT22;9145;48.588;9.250;2023-04-26T13:20:21;16.00;99.70
18041;DHT22;9145;48.588;9.250;2023-04-26T13:22:48;16.00;99.90
18041;DHT22;9145;48.588;9.250;2023-04-26T13:25:15;16.10;99.90
18041;DHT22;9145;48.588;9.250;2023-04-26T13:27:43;16.40;99.90
18041;DHT22;9145;48.588;9.250;2023-04-26T13:30:13;16.90;99.90
18041;DHT22;9145;48.588;9.250;2023-04-26T13:32:40;17.20;99.90
18041;DHT22;9145;48.588;9.250;2023-04-26T13:35:07;17.10;98.00
18041;DHT22;9145;48.588;9.250;2023-04-26T13:37:34;17.00;99.00
18041;DHT22;9145;48.588;9.250;2023-04-26T13:40:01;17.00;99.90
18041;DHT22;9145;48.588;9.250;2023-04-26T13:42:30;17.10;98.50
18041;DHT22;9145;48.588;9.250;2023-04-26T13:44:57;17.70;99.00
18041;DHT22;9145;48.588;9.250;2023-04-26T13:47:26;17.80;96.20
18041;DHT22;9145;48.588;9.250;2023-04-26T13:49:53;17.50;97.30
18041;DHT22;9145;48.588;9.250;2023-04-26T13:52:20;17.10;99.10
18041;DHT22;9145;48.588;9.250;2023-04-26T13:54:47;17.10;99.90
18041;DHT22;9145;48.588;9.250;2023-04-26T13:57:13;17.10;97.90
18041;DHT22;9145;48.588;9.250;2023-04-26T13:59:40;17.00;98.50
18041;DHT22;9145;48.588;9.250;2023-04-26T14:02:07;17.10;99.40
18041;DHT22;9145;48.588;9.250;2023-04-26T14:04:36;17.40;98.70
18041;DHT22;9145;48.588;9.250;2023-04-26T14:07:03;17.90;99.90
18041;DHT22;9145;48.588;9.250;2023-04-26T14:09:30;18.30;98.50
18041;DHT22;9145;48.588;9.250;2023-04-26T14:11:57;18.50;99.50
18041;DHT22;9145;48.588;9.250;2023-04-26T14:14:24;18.80;99.50
18041;DHT22;9145;48.588;9.250;2023-04-26T14:16:51;18.70;95.70
18041;DHT22;9145;48.588;9.250;2023-04-26T14:19:18;18.60;96.50
18041;DHT22;9145;48.588;9.250;2023-04-26T14:21:46;18.10;97.60
18041;DHT22;9145;48.588;9.250;2023-04-26T14:24:13;18.50;95.60
18041;DHT22;9145;48.588;9.250;2023-04-26T14:26:40;18.30;95.30
18041;DHT22;9145;48.588;9.250;2023-04-26T14:29:07;18.50;97.90
18041;DHT22;9145;48.588;9.250;2023-04-26T14:31:34;18.60;94.50
18041;DHT22;9145;48.588;9.250;2023-04-26T14:34:00;18.50;96.40
18041;DHT22;9145;48.588;9.250;2023-04-26T14:36:27;18.00;94.20
18041;DHT22;9145;48.588;9.250;2023-04-26T14:38:56;17.70;95.60
18041;DHT22;9145;48.588;9.250;2023-04-26T14:41:22;18.10;95.60
18041;DHT22;9145;48.588;9.250;2023-04-26T14:43:49;18.70;96.90
18041;DHT22;9145;48.588;9.250;2023-04-26T14:46:16;19.50;93.20
18041;DHT22;9145;48.588;9.250;2023-04-26T14:48:43;19.70;94.40
18041;DHT22;9145;48.588;9.250;2023-04-26T14:51:10;20.20;94.90
18041;DHT22;9145;48.588;9.250;2023-04-26T14:53:37;19.80;93.40
18041;DHT22;9145;48.588;9.250;2023-04-26T14:56:06;20.00;94.60
18041;DHT22;9145;48.588;9.250;2023-04-26T14:58:33;20.10;92.70
18041;DHT22;9145;48.588;9.250;2023-04-26T15:01:00;20.00;94.80
18041;DHT22;9145;48.588;9.250;2023-04-26T15:03:28;20.40;94.70
18041;DHT22;9145;48.588;9.250;2023-04-26T15:05:54;20.10;93.50
18041;DHT22;9145;48.588;9.250;2023-04-26T15:08:21;20.40;94.40
18041;DHT22;9145;48.588;9.250;2023-04-26T15:10:48;20.70;93.60
18041;DHT22;9145;48.588;9.250;2023-04-26T15:13:17;21.30;94.80
18041;DHT22;9145;48.588;9.250;2023-04-26T15:15:44;22.30;92.50
18041;DHT22;9145;48.588;9.250;2023-04-26T15:18:10;21.70;91.30
18041;DHT22;9145;48.588;9.250;2023-04-26T15:20:38;21.40;90.90
18041;DHT22;9145;48.588;9.250;2023-04-26T15:23:05;20.50;88.00
18041;DHT22;9145;48.588;9.250;2023-04-26T15:25:33;20.30;93.20
18041;DHT22;9145;48.588;9.250;2023-04-26T15:28:00;20.40;90.00
18041;DHT22;9145;48.588;9.250;2023-04-26T15:30:29;20.60;92.30
18041;DHT22;9145;48.588;9.250;2023-04-26T15:32:56;20.80;91.10
18041;DHT22;9145;48.588;9.250;2023-04-26T15:35:23;20.90;91.00
18041;DHT22;9145;48.588;9.250;2023-04-26T15:37:50;20.50;87.90
18041;DHT22;9145;48.588;9.250;2023-04-26T15:40:18;20.60;91.60
18041;DHT22;9145;48.588;9.250;2023-04-26T15:42:45;20.90;88.80
18041;DHT22;9145;48.588;9.250;2023-04-26T15:45:13;20.80;91.80
18041;DHT22;9145;48.588;9.250;2023-04-26T15:47:41;21.30;91.70
18041;DHT22;9145;48.588;9.250;2023-04-26T15:50:08;22.00;91.20
18041;DHT22;9145;48.588;9.250;2023-04-26T15:52:35;21.70;90.50
18041;DHT22;9145;48.588;9.250;2023-04-26T15:55:03;21.10;88.90
18041;DHT22;9145;48.588;9.250;2023-04-26T15:57:32;20.80;91.20
18041;DHT22;9145;48.588;9.250;2023-04-26T15:59:59;21.70;92.20